Time;durP1;ratioP1;P1;durP2;ratioP2;P2;SDS_P1;SDS_P2;PMS_P1;PMS_P2;Temp;Humidity;BMP_temperature;BMP_pressure;BME280_temperature;BME280_humidity;BME280_pressure;Samples;Min_cycle;Max_cycle;Signal;HPM_P1;HPM_P2
2022/03/19 00:00:09;;;;;;;40.72;26.45;;;;;;;;;;6292217;22;20060;-84
2022/03/19 00:02:35;;;;;;;42.78;27.05;;;;;;;;;;6318354;22;20070;-83
2022/03/19 00:05:01;;;;;;;44.03;26.05;;;;;;;;;;6290535;22;20007;-84
2022/03/19 00:07:27;;;;;;;40.28;25.63;;;;;;;;;;6290832;22;20002;-84
2022/03/19 00:09:53;;;;;;;39.55;26.23;;;;;;;;;;6318020;22;20084;-83
2022/03/19 00:12:20;;;;;;;40.58;27.33;;;;;;;;;;6317752;22;20029;-83
2022/03/19 00:14:46;;;;;;;43.67;28.75;;;;;;;;;;6318004;22;20000;-83
2022/03/19 00:17:12;;;;;;;42.17;27.83;;;;;;;;;;6319206;22;20003;-83
2022/03/19 00:19:39;;;;;;;44.85;28.13;;;;;;;;;;6316948;22;20444;-83
2022/03/19 00:22:05;;;;;;;46.97;27.05;;;;;;;;;;6290530;22;20003;-83
2022/03/19 00:24:31;;;;;;;39.33;25.27;;;;;;;;;;6317400;22;20027;-83
2022/03/19 00:26:57;;;;;;;44.50;27.08;;;;;;;;;;6318145;22;20324;-83
2022/03/19 00:29:23;;;;;;;41.30;26.13;;;;;;;;;;6317935;22;20474;-83
2022/03/19 00:31:50;;;;;;;41.47;25.95;;;;;;;;;;6289836;22;20034;-84
2022/03/19 00:34:16;;;;;;;42.95;25.63;;;;;;;;;;6318061;22;20000;-84
2022/03/19 00:36:42;;;;;;;44.15;27.67;;;;;;;;;;6317790;22;19999;-84
2022/03/19 00:39:08;;;;;;;41.03;25.90;;;;;;;;;;6289614;22;20552;-83
2022/03/19 00:41:34;;;;;;;40.17;26.60;;;;;;;;;;6289128;22;20031;-84
2022/03/19 00:44:00;;;;;;;38.28;25.63;;;;;;;;;;6289200;22;20006;-84
2022/03/19 00:46:26;;;;;;;41.20;26.60;;;;;;;;;;6318134;22;20000;-84
2022/03/19 00:48:52;;;;;;;39.97;25.60;;;;;;;;;;6289779;22;20064;-84
2022/03/19 00:51:18;;;;;;;39.03;26.45;;;;;;;;;;6289833;22;20003;-84
2022/03/19 00:53:44;;;;;;;41.78;25.02;;;;;;;;;;6290219;22;20003;-84
2022/03/19 00:56:10;;;;;;;39.45;25.42;;;;;;;;;;6318039;22;20003;-83
2022/03/19 00:58:36;;;;;;;40.83;25.65;;;;;;;;;;6289961;22;20003;-84
2022/03/19 01:01:02;;;;;;;43.78;24.95;;;;;;;;;;6289878;22;20062;-84
2022/03/19 01:03:29;;;;;;;40.90;25.35;;;;;;;;;;6289617;22;20443;-84
2022/03/19 01:05:55;;;;;;;38.60;25.77;;;;;;;;;;6316976;22;20010;-84
2022/03/19 01:08:21;;;;;;;41.10;24.92;;;;;;;;;;6317849;22;20367;-84
2022/03/19 01:10:47;;;;;;;38.83;26.15;;;;;;;;;;6290369;22;20003;-81
2022/03/19 01:13:13;;;;;;;41.97;26.83;;;;;;;;;;6290867;22;20205;-81
2022/03/19 01:15:39;;;;;;;40.33;25.85;;;;;;;;;;6318575;22;20007;-83
2022/03/19 01:18:05;;;;;;;41.80;25.77;;;;;;;;;;6316965;22;19996;-84
2022/03/19 01:20:31;;;;;;;41.72;25.02;;;;;;;;;;6289524;22;19999;-84
2022/03/19 01:22:57;;;;;;;40.58;26.20;;;;;;;;;;6316029;22;20542;-84
2022/03/19 01:25:23;;;;;;;39.55;25.30;;;;;;;;;;6289937;22;20431;-84
2022/03/19 01:27:50;;;;;;;41.60;26.58;;;;;;;;;;6317815;22;19995;-84
2022/03/19 01:30:18;;;;;;;38.80;25.92;;;;;;;;;;6316576;22;19995;-82
2022/03/19 01:32:46;;;;;;;37.97;25.02;;;;;;;;;;6316820;22;19999;-83
2022/03/19 01:35:12;;;;;;;36.83;24.52;;;;;;;;;;6288639;22;19999;-84
2022/03/19 01:37:39;;;;;;;43.25;27.02;;;;;;;;;;6288391;22;20403;-83
2022/03/19 01:40:06;;;;;;;42.30;26.08;;;;;;;;;;6288728;22;20078;-84
2022/03/19 01:42:33;;;;;;;40.22;25.48;;;;;;;;;;6297493;22;19995;-83
2022/03/19 01:45:00;;;;;;;40.80;25.63;;;;;;;;;;6299713;22;20034;-84
2022/03/19 01:47:28;;;;;;;41.65;25.98;;;;;;;;;;6291869;22;19999;-84
2022/03/19 01:49:54;;;;;;;42.10;25.70;;;;;;;;;;6318845;22;19999;-84
2022/03/19 01:52:22;;;;;;;43.03;26.65;;;;;;;;;;6290554;22;20496;-84
2022/03/19 01:54:49;;;;;;;41.05;25.73;;;;;;;;;;6291424;22;20003;-84
2022/03/19 01:57:19;;;;;;;42.20;25.95;;;;;;;;;;6318289;22;20019;-84
2022/03/19 01:59:46;;;;;;;41.75;24.98;;;;;;;;;;6290903;22;19999;-84
2022/03/19 02:02:13;;;;;;;41.53;25.05;;;;;;;;;;6318189;22;20053;-83
2022/03/19 02:04:40;;;;;;;41.38;26.33;;;;;;;;;;6291447;22;19999;-84
2022/03/19 02:07:09;;;;;;;45.17;28.38;;;;;;;;;;6290286;22;20082;-83
2022/03/19 02:09:36;;;;;;;48.20;28.50;;;;;;;;;;6290163;22;20014;-84
2022/03/19 02:12:03;;;;;;;44.83;27.00;;;;;;;;;;6317797;22;20004;-84
2022/03/19 02:14:29;;;;;;;43.92;27.63;;;;;;;;;;6290047;22;20013;-83
2022/03/19 02:16:55;;;;;;;45.08;27.90;;;;;;;;;;6290048;22;20007;-83
2022/03/19 02:19:21;;;;;;;40.50;25.20;;;;;;;;;;6289808;22;20272;-84
2022/03/19 02:21:49;;;;;;;40.42;26.23;;;;;;;;;;6289680;22;20025;-84
2022/03/19 02:27:01;;;;;;;41.13;26.02;;;;;;;;;;6316898;22;20025;-83
2022/03/19 02:29:27;;;;;;;41.63;26.40;;;;;;;;;;6289186;22;20011;-84
2022/03/19 02:31:58;;;;;;;45.13;27.38;;;;;;;;;;6315832;22;20003;-83
2022/03/19 02:34:24;;;;;;;43.83;27.58;;;;;;;;;;6289168;22;20406;-81
2022/03/19 02:36:50;;;;;;;46.10;26.80;;;;;;;;;;6316657;22;20413;-84
2022/03/19 02:39:18;;;;;;;42.13;26.95;;;;;;;;;;6316316;22;20121;-84
2022/03/19 02:41:45;;;;;;;44.10;26.40;;;;;;;;;;6315649;22;20007;-84
2022/03/19 02:44:12;;;;;;;43.28;27.00;;;;;;;;;;6289137;22;20030;-83
2022/03/19 02:46:38;;;;;;;42.33;25.25;;;;;;;;;;6289738;22;20327;-84
2022/03/19 02:49:04;;;;;;;42.35;26.25;;;;;;;;;;6289963;22;20007;-84
2022/03/19 02:51:32;;;;;;;45.72;27.23;;;;;;;;;;6317933;22;19995;-83
2022/03/19 02:54:00;;;;;;;43.50;27.52;;;;;;;;;;6290549;22;20003;-83
2022/03/19 02:56:26;;;;;;;42.97;25.48;;;;;;;;;;6317931;22;20011;-84
2022/03/19 02:58:52;;;;;;;39.95;26.10;;;;;;;;;;6316979;22;19995;-84
2022/03/19 03:01:18;;;;;;;42.45;26.45;;;;;;;;;;6288990;22;20003;-84
2022/03/19 03:03:44;;;;;;;42.05;26.23;;;;;;;;;;6316555;22;20236;-83
2022/03/19 03:06:10;;;;;;;42.08;27.75;;;;;;;;;;6288480;22;20003;-84
2022/03/19 03:08:36;;;;;;;43.30;26.98;;;;;;;;;;6288234;22;20014;-83
2022/03/19 03:11:02;;;;;;;47.10;27.67;;;;;;;;;;6290078;22;20004;-84
2022/03/19 03:13:28;;;;;;;43.03;27.08;;;;;;;;;;6289338;22;20014;-83
2022/03/19 03:15:54;;;;;;;44.78;26.92;;;;;;;;;;6316936;22;20007;-84
2022/03/19 03:18:20;;;;;;;46.90;26.88;;;;;;;;;;6289167;22;20010;-83
2022/03/19 03:20:46;;;;;;;43.13;27.63;;;;;;;;;;6316767;22;20018;-84
2022/03/19 03:23:14;;;;;;;49.90;30.08;;;;;;;;;;6315921;22;20466;-83
2022/03/19 03:25:40;;;;;;;42.88;27.65;;;;;;;;;;6288598;22;20003;-84
2022/03/19 03:28:06;;;;;;;44.90;28.77;;;;;;;;;;6316857;22;20057;-84
2022/03/19 03:30:32;;;;;;;39.45;26.15;;;;;;;;;;6288104;22;20084;-83
2022/03/19 03:32:58;;;;;;;47.60;28.70;;;;;;;;;;6314708;22;19999;-84
2022/03/19 03:35:25;;;;;;;48.38;28.60;;;;;;;;;;6288004;22;20018;-84
2022/03/19 03:37:52;;;;;;;49.13;28.33;;;;;;;;;;6316658;22;20026;-83
2022/03/19 03:40:18;;;;;;;44.58;27.50;;;;;;;;;;6289307;22;20003;-84
2022/03/19 03:42:45;;;;;;;42.55;27.60;;;;;;;;;;6288272;22;20007;-83
2022/03/19 03:45:11;;;;;;;43.97;27.17;;;;;;;;;;6286950;22;20094;-84
2022/03/19 03:47:37;;;;;;;50.55;30.48;;;;;;;;;;6286832;22;20045;-84
2022/03/19 03:50:04;;;;;;;43.38;28.42;;;;;;;;;;6286606;22;20007;-83
2022/03/19 03:52:30;;;;;;;43.90;27.83;;;;;;;;;;6313936;22;19995;-83
2022/03/19 03:54:57;;;;;;;44.95;28.67;;;;;;;;;;6286112;22;20010;-83
2022/03/19 03:57:23;;;;;;;45.42;27.95;;;;;;;;;;6286081;22;20014;-83
2022/03/19 03:59:50;;;;;;;46.30;29.02;;;;;;;;;;6286426;22;20010;-83
2022/03/19 04:02:16;;;;;;;44.88;27.80;;;;;;;;;;6286257;22;20059;-84
2022/03/19 04:04:43;;;;;;;44.50;27.73;;;;;;;;;;6314167;22;20438;-84
2022/03/19 04:07:09;;;;;;;42.92;28.52;;;;;;;;;;6286986;22;20005;-83
2022/03/19 04:09:35;;;;;;;39.97;26.35;;;;;;;;;;6287540;22;20007;-83
2022/03/19 04:12:03;;;;;;;41.75;27.20;;;;;;;;;;6315241;22;19999;-84
2022/03/19 04:14:29;;;;;;;44.25;27.65;;;;;;;;;;6287506;22;20060;-83
2022/03/19 04:16:55;;;;;;;47.70;28.95;;;;;;;;;;6317958;22;20023;-83
2022/03/19 04:19:21;;;;;;;43.60;27.70;;;;;;;;;;6316544;22;20011;-81
2022/03/19 04:21:47;;;;;;;41.17;26.55;;;;;;;;;;6315859;22;20002;-84
2022/03/19 04:24:13;;;;;;;48.13;29.00;;;;;;;;;;6316012;22;20014;-83
2022/03/19 04:26:39;;;;;;;44.88;27.90;;;;;;;;;;6315341;22;20003;-83
2022/03/19 04:29:05;;;;;;;43.03;26.67;;;;;;;;;;6315955;22;20319;-84
2022/03/19 04:31:31;;;;;;;43.95;27.30;;;;;;;;;;6316263;22;20034;-83
2022/03/19 04:33:57;;;;;;;46.65;28.45;;;;;;;;;;6315628;22;20003;-84
2022/03/19 04:36:30;;;;;;;45.08;28.23;;;;;;;;;;6293792;22;20034;-84
2022/03/19 04:38:57;;;;;;;41.22;28.80;;;;;;;;;;6297456;22;20000;-84
2022/03/19 04:41:23;;;;;;;45.20;28.13;;;;;;;;;;6325163;22;19996;-84
2022/03/19 04:43:50;;;;;;;45.60;28.75;;;;;;;;;;6320196;22;19999;-84
2022/03/19 04:46:16;;;;;;;47.17;29.83;;;;;;;;;;6291889;22;20003;-83
2022/03/19 04:48:45;;;;;;;49.40;29.65;;;;;;;;;;6319502;22;20030;-83
2022/03/19 04:51:15;;;;;;;44.55;28.83;;;;;;;;;;6291931;22;20006;-83
2022/03/19 04:53:41;;;;;;;47.55;28.60;;;;;;;;;;6292821;22;20003;-84
2022/03/19 04:56:07;;;;;;;47.35;29.05;;;;;;;;;;6292355;22;20057;-81
2022/03/19 04:58:34;;;;;;;43.85;29.45;;;;;;;;;;6292741;22;20055;-81
2022/03/19 05:01:00;;;;;;;42.97;28.90;;;;;;;;;;6325222;22;20000;-81
2022/03/19 05:03:26;;;;;;;45.38;29.45;;;;;;;;;;6327295;22;20009;-81
2022/03/19 05:05:52;;;;;;;44.60;29.02;;;;;;;;;;6292277;22;20362;-82
2022/03/19 05:08:18;;;;;;;47.88;29.63;;;;;;;;;;6318896;22;20014;-82
2022/03/19 05:13:29;;;;;;;47.28;30.08;;;;;;;;;;6319842;22;20052;-82
2022/03/19 05:15:55;;;;;;;47.28;30.25;;;;;;;;;;6319625;22;20006;-83
2022/03/19 05:18:21;;;;;;;48.40;27.80;;;;;;;;;;6292059;22;20000;-83
2022/03/19 05:20:47;;;;;;;46.60;31.30;;;;;;;;;;6290390;22;19999;-82
2022/03/19 05:23:13;;;;;;;46.10;29.20;;;;;;;;;;6291851;22;19995;-82
2022/03/19 05:25:40;;;;;;;46.78;28.75;;;;;;;;;;6291713;22;20030;-82
2022/03/19 05:28:06;;;;;;;47.20;28.98;;;;;;;;;;6291073;22;20062;-82
2022/03/19 05:30:32;;;;;;;42.35;27.70;;;;;;;;;;6319032;22;19999;-82
2022/03/19 05:32:58;;;;;;;44.47;27.58;;;;;;;;;;6290943;22;20010;-83
2022/03/19 05:35:25;;;;;;;44.10;29.75;;;;;;;;;;6291185;22;20003;-83
2022/03/19 05:37:51;;;;;;;43.88;29.42;;;;;;;;;;6319836;22;19995;-83
2022/03/19 05:40:17;;;;;;;48.70;29.60;;;;;;;;;;6289825;22;19995;-83
2022/03/19 05:42:44;;;;;;;45.03;28.25;;;;;;;;;;6317708;22;20030;-82
2022/03/19 05:45:10;;;;;;;46.80;28.52;;;;;;;;;;6291216;22;20086;-83
2022/03/19 05:47:38;;;;;;;43.67;28.42;;;;;;;;;;6291529;22;20010;-83
2022/03/19 05:50:04;;;;;;;42.03;26.88;;;;;;;;;;6318035;22;20003;-83
2022/03/19 05:52:30;;;;;;;41.28;28.35;;;;;;;;;;6288991;22;20324;-83
2022/03/19 05:54:56;;;;;;;43.88;28.60;;;;;;;;;;6317968;22;20014;-83
2022/03/19 05:57:22;;;;;;;45.55;28.63;;;;;;;;;;6290987;22;20398;-85
2022/03/19 05:59:48;;;;;;;41.78;26.98;;;;;;;;;;6290139;22;20000;-83
2022/03/19 06:02:14;;;;;;;41.20;27.77;;;;;;;;;;6317245;22;20005;-83
2022/03/19 06:04:40;;;;;;;46.95;29.02;;;;;;;;;;6316996;22;20369;-83
2022/03/19 06:07:06;;;;;;;40.05;27.83;;;;;;;;;;6317067;22;20010;-83
2022/03/19 06:09:33;;;;;;;44.35;27.98;;;;;;;;;;6297548;22;20014;-83
2022/03/19 06:11:59;;;;;;;47.60;30.27;;;;;;;;;;6332217;22;19991;-83
2022/03/19 06:14:25;;;;;;;44.63;28.45;;;;;;;;;;6331775;22;20086;-83
2022/03/19 06:16:51;;;;;;;39.55;27.55;;;;;;;;;;6329735;22;20027;-83
2022/03/19 06:19:17;;;;;;;42.67;27.35;;;;;;;;;;6330975;22;19988;-83
2022/03/19 06:21:43;;;;;;;42.28;28.05;;;;;;;;;;6331454;22;19983;-83
2022/03/19 06:24:09;;;;;;;43.35;28.17;;;;;;;;;;6324034;22;20017;-83
2022/03/19 06:26:36;;;;;;;40.03;26.67;;;;;;;;;;6318124;22;19999;-84
2022/03/19 06:29:02;;;;;;;44.20;29.83;;;;;;;;;;6319074;22;20003;-83
2022/03/19 06:31:28;;;;;;;38.40;27.98;;;;;;;;;;6291884;22;20038;-83
2022/03/19 06:33:54;;;;;;;43.28;28.67;;;;;;;;;;6291460;22;20009;-82
2022/03/19 06:39:06;;;;;;;42.35;26.05;;;;;;;;;;6319907;22;20010;-83
2022/03/19 06:41:32;;;;;;;39.97;27.33;;;;;;;;;;6319893;22;19999;-83
2022/03/19 06:43:58;;;;;;;42.15;27.92;;;;;;;;;;6318250;22;20010;-83
2022/03/19 06:46:24;;;;;;;40.58;26.05;;;;;;;;;;6286704;22;20012;-82
2022/03/19 06:48:51;;;;;;;37.42;25.20;;;;;;;;;;6315945;22;20007;-83
2022/03/19 06:51:18;;;;;;;39.15;26.25;;;;;;;;;;6291073;22;20028;-83
2022/03/19 06:53:44;;;;;;;36.03;26.27;;;;;;;;;;6325393;22;19995;-83
2022/03/19 06:56:10;;;;;;;34.50;24.80;;;;;;;;;;6304039;22;20003;-83
2022/03/19 06:58:36;;;;;;;33.88;23.48;;;;;;;;;;6331333;22;20023;-82
2022/03/19 07:01:03;;;;;;;35.72;24.40;;;;;;;;;;6330358;22;20003;-83
2022/03/19 07:03:30;;;;;;;36.33;24.20;;;;;;;;;;6331142;22;20014;-83
2022/03/19 07:05:56;;;;;;;33.20;24.25;;;;;;;;;;6294696;22;20007;-84
2022/03/19 07:08:22;;;;;;;35.25;24.65;;;;;;;;;;6315995;22;20004;-84
2022/03/19 07:10:49;;;;;;;35.50;25.10;;;;;;;;;;6290598;22;20126;-84
2022/03/19 07:13:15;;;;;;;33.15;24.95;;;;;;;;;;6314168;22;20004;-85
2022/03/19 07:15:41;;;;;;;34.20;24.48;;;;;;;;;;6313161;22;19999;-85
2022/03/19 07:18:08;;;;;;;38.25;24.65;;;;;;;;;;6316018;22;19995;-84
2022/03/19 07:20:34;;;;;;;36.10;25.13;;;;;;;;;;6286379;22;20007;-84
2022/03/19 07:23:05;;;;;;;34.15;24.90;;;;;;;;;;6285152;22;20026;-84
2022/03/19 07:25:41;;;;;;;34.25;25.00;;;;;;;;;;6313682;22;20429;-84
2022/03/19 07:28:19;;;;;;;34.50;23.98;;;;;;;;;;6312609;22;19996;-85
2022/03/19 07:30:46;;;;;;;34.45;25.20;;;;;;;;;;6313314;22;20002;-84
2022/03/19 07:33:12;;;;;;;30.83;23.23;;;;;;;;;;6287287;22;19999;-84
2022/03/19 07:35:39;;;;;;;35.45;23.67;;;;;;;;;;6315022;22;20025;-84
2022/03/19 07:38:06;;;;;;;35.42;23.88;;;;;;;;;;6314357;22;20002;-84
2022/03/19 07:43:19;;;;;;;31.00;23.90;;;;;;;;;;6313574;22;20057;-85
2022/03/19 07:45:45;;;;;;;32.92;23.20;;;;;;;;;;6313419;22;20026;-84
2022/03/19 07:48:11;;;;;;;32.08;23.70;;;;;;;;;;6286385;22;20003;-84
2022/03/19 07:50:38;;;;;;;31.92;23.30;;;;;;;;;;6314265;22;20465;-84
2022/03/19 07:53:04;;;;;;;32.40;23.13;;;;;;;;;;6286620;22;20007;-84
2022/03/19 07:55:30;;;;;;;31.77;24.90;;;;;;;;;;6313000;22;20007;-85
2022/03/19 07:57:56;;;;;;;30.48;22.60;;;;;;;;;;6313386;22;20011;-85
2022/03/19 08:00:22;;;;;;;32.83;24.35;;;;;;;;;;6313634;22;20504;-84
2022/03/19 08:02:49;;;;;;;33.50;23.17;;;;;;;;;;6286220;22;20000;-85
2022/03/19 08:05:15;;;;;;;31.63;23.00;;;;;;;;;;6314187;22;19996;-85
2022/03/19 08:07:42;;;;;;;30.52;23.27;;;;;;;;;;6318318;22;20000;-84
2022/03/19 08:10:09;;;;;;;31.20;24.00;;;;;;;;;;6314117;22;20000;-84
2022/03/19 08:12:35;;;;;;;34.47;25.17;;;;;;;;;;6312767;22;20025;-84
2022/03/19 08:15:06;;;;;;;31.33;24.75;;;;;;;;;;6313302;22;19999;-83
2022/03/19 08:17:32;;;;;;;30.27;23.85;;;;;;;;;;6313282;22;20003;-84
2022/03/19 08:19:58;;;;;;;33.03;24.70;;;;;;;;;;6313474;22;19999;-84
2022/03/19 08:22:25;;;;;;;32.47;24.25;;;;;;;;;;6313648;22;20003;-84
2022/03/19 08:24:52;;;;;;;32.00;22.98;;;;;;;;;;6313822;22;20026;-84
2022/03/19 08:27:18;;;;;;;31.63;22.42;;;;;;;;;;6285630;22;20010;-84
2022/03/19 08:29:44;;;;;;;25.85;19.67;;;;;;;;;;6285116;22;20410;-83
2022/03/19 08:32:11;;;;;;;29.58;19.63;;;;;;;;;;6312126;22;20076;-83
2022/03/19 08:34:37;;;;;;;24.75;18.80;;;;;;;;;;6313424;22;19999;-83
2022/03/19 08:37:03;;;;;;;24.95;18.70;;;;;;;;;;6312823;22;20022;-84
2022/03/19 08:42:14;;;;;;;26.33;18.65;;;;;;;;;;6312604;22;20098;-85
2022/03/19 08:44:40;;;;;;;28.27;18.73;;;;;;;;;;6286047;22;19999;-84
2022/03/19 08:47:06;;;;;;;24.15;19.15;;;;;;;;;;6313509;22;20004;-85
2022/03/19 08:49:32;;;;;;;25.42;19.00;;;;;;;;;;6312877;22;20057;-85
2022/03/19 08:51:58;;;;;;;24.23;18.02;;;;;;;;;;6312715;22;20000;-85
2022/03/19 08:54:25;;;;;;;25.10;18.77;;;;;;;;;;6285674;22;20465;-85
2022/03/19 08:56:51;;;;;;;31.35;21.15;;;;;;;;;;6312042;22;20011;-84
2022/03/19 08:59:19;;;;;;;26.88;19.38;;;;;;;;;;6284888;22;20015;-84
2022/03/19 09:01:46;;;;;;;27.75;19.83;;;;;;;;;;6286424;22;20069;-84
2022/03/19 09:04:12;;;;;;;24.65;17.75;;;;;;;;;;6313904;22;20463;-84
2022/03/19 09:06:39;;;;;;;29.33;20.30;;;;;;;;;;6286757;22;20338;-85
2022/03/19 09:09:06;;;;;;;27.83;19.98;;;;;;;;;;6285637;22;20007;-85
2022/03/19 09:11:33;;;;;;;26.88;19.98;;;;;;;;;;6284974;22;20338;-84
2022/03/19 09:14:00;;;;;;;25.45;18.20;;;;;;;;;;6314456;22;20003;-84
2022/03/19 09:16:26;;;;;;;27.83;18.13;;;;;;;;;;6285862;22;20161;-84
2022/03/19 09:18:53;;;;;;;29.60;20.73;;;;;;;;;;6313573;22;19995;-85
2022/03/19 09:21:19;;;;;;;28.75;19.60;;;;;;;;;;6286112;22;20004;-84
2022/03/19 09:23:45;;;;;;;25.30;17.90;;;;;;;;;;6312980;22;20000;-84
2022/03/19 09:26:14;;;;;;;22.88;19.00;;;;;;;;;;6313901;22;20458;-84
2022/03/19 09:28:40;;;;;;;27.25;18.27;;;;;;;;;;6313539;22;19999;-84
2022/03/19 09:31:06;;;;;;;25.33;19.38;;;;;;;;;;6312856;22;20422;-84
2022/03/19 09:33:32;;;;;;;21.75;17.15;;;;;;;;;;6313188;22;20078;-84
2022/03/19 09:36:01;;;;;;;25.95;17.67;;;;;;;;;;6286448;22;19999;-84
2022/03/19 09:38:27;;;;;;;22.73;17.60;;;;;;;;;;6312829;22;19995;-84
2022/03/19 09:40:53;;;;;;;25.42;17.60;;;;;;;;;;6313160;22;20010;-83
2022/03/19 09:43:22;;;;;;;25.75;18.23;;;;;;;;;;6287292;22;20363;-84
2022/03/19 09:45:51;;;;;;;25.73;19.17;;;;;;;;;;6313092;22;20006;-84
2022/03/19 09:48:17;;;;;;;24.08;18.95;;;;;;;;;;6286058;22;20007;-84
2022/03/19 09:50:43;;;;;;;22.83;16.42;;;;;;;;;;6313125;22;19999;-84
2022/03/19 09:53:09;;;;;;;22.67;17.73;;;;;;;;;;6313299;22;20002;-84
2022/03/19 09:55:38;;;;;;;23.98;17.88;;;;;;;;;;6313445;22;20341;-84
2022/03/19 09:58:04;;;;;;;22.42;17.20;;;;;;;;;;6285583;22;20360;-84
2022/03/19 10:00:31;;;;;;;24.25;17.48;;;;;;;;;;6313950;22;20006;-84
2022/03/19 10:02:59;;;;;;;23.73;17.35;;;;;;;;;;6314949;22;20079;-84
2022/03/19 10:10:59;;;;;;;23.33;17.40;;;;;;;;;;6312983;22;20458;-84
2022/03/19 10:13:25;;;;;;;22.05;16.85;;;;;;;;;;6286742;22;20094;-84
2022/03/19 10:15:51;;;;;;;23.58;16.35;;;;;;;;;;6312484;22;20074;-84
2022/03/19 10:18:18;;;;;;;22.42;16.38;;;;;;;;;;6312715;22;20026;-84
2022/03/19 10:20:45;;;;;;;22.67;15.73;;;;;;;;;;6312964;22;20027;-84
2022/03/19 10:23:11;;;;;;;24.55;18.70;;;;;;;;;;6312993;22;20065;-84
2022/03/19 10:25:37;;;;;;;22.58;16.83;;;;;;;;;;6311826;22;19991;-84
2022/03/19 10:28:08;;;;;;;21.88;16.63;;;;;;;;;;6312770;22;20003;-83
2022/03/19 10:30:36;;;;;;;24.25;17.27;;;;;;;;;;6286540;22;20009;-83
2022/03/19 10:33:02;;;;;;;22.90;16.98;;;;;;;;;;6313862;22;20062;-84
2022/03/19 10:35:33;;;;;;;22.00;18.08;;;;;;;;;;6285369;22;20423;-84
2022/03/19 10:38:01;;;;;;;24.40;17.05;;;;;;;;;;6312548;22;20000;-84
2022/03/19 10:40:39;;;;;;;25.00;17.48;;;;;;;;;;6312375;22;19996;-84
2022/03/19 10:43:06;;;;;;;20.98;16.05;;;;;;;;;;6283044;22;20458;-84
2022/03/19 10:45:32;;;;;;;25.70;18.08;;;;;;;;;;6285740;22;20059;-84
2022/03/19 10:48:01;;;;;;;23.65;16.58;;;;;;;;;;6313784;22;20455;-84
2022/03/19 10:50:27;;;;;;;23.73;17.50;;;;;;;;;;6286028;22;20037;-84
2022/03/19 10:52:54;;;;;;;21.30;17.23;;;;;;;;;;6285114;22;19999;-84
2022/03/19 10:55:21;;;;;;;24.67;17.48;;;;;;;;;;6311742;22;19999;-85
2022/03/19 10:57:47;;;;;;;24.85;16.33;;;;;;;;;;6284104;22;20015;-84
2022/03/19 11:00:13;;;;;;;24.00;17.10;;;;;;;;;;6282950;22;20003;-84
2022/03/19 11:02:41;;;;;;;21.17;16.17;;;;;;;;;;6282605;22;20142;-84
2022/03/19 11:05:08;;;;;;;21.88;16.25;;;;;;;;;;6317059;22;20000;-85
2022/03/19 11:07:35;;;;;;;22.50;15.68;;;;;;;;;;6292242;22;20162;-84
2022/03/19 11:10:04;;;;;;;19.50;15.68;;;;;;;;;;6291451;22;20915;-84
2022/03/19 11:12:32;;;;;;;22.98;16.20;;;;;;;;;;6316604;22;20010;-84
2022/03/19 11:14:59;;;;;;;20.77;15.93;;;;;;;;;;6287621;22;20014;-84
2022/03/19 11:17:32;;;;;;;21.40;15.63;;;;;;;;;;6286286;22;20007;-83
2022/03/19 11:20:00;;;;;;;19.98;14.60;;;;;;;;;;6314147;22;20050;-84
2022/03/19 11:22:27;;;;;;;18.83;14.55;;;;;;;;;;6315749;22;20003;-84
2022/03/19 11:25:02;;;;;;;20.45;15.38;;;;;;;;;;6287353;22;19999;-83
2022/03/19 11:27:29;;;;;;;17.95;13.75;;;;;;;;;;6287407;22;20016;-84
2022/03/19 11:29:58;;;;;;;18.85;14.15;;;;;;;;;;6315859;22;20056;-84
2022/03/19 11:32:24;;;;;;;18.55;14.25;;;;;;;;;;6314863;22;20021;-84
2022/03/19 11:34:56;;;;;;;21.23;14.88;;;;;;;;;;6314721;22;20019;-84
2022/03/19 11:37:22;;;;;;;22.95;17.45;;;;;;;;;;6315820;22;20071;-84
2022/03/19 11:40:23;;;;;;;21.40;15.15;;;;;;;;;;6316297;22;19995;-84
2022/03/19 11:42:57;;;;;;;19.38;15.30;;;;;;;;;;6313915;22;20010;-85
2022/03/19 11:45:23;;;;;;;22.27;15.90;;;;;;;;;;6314725;22;20082;-85
2022/03/19 11:47:49;;;;;;;21.83;16.90;;;;;;;;;;6315077;22;20006;-84
2022/03/19 11:50:26;;;;;;;21.20;16.23;;;;;;;;;;6314312;22;19999;-85
2022/03/19 11:52:55;;;;;;;23.88;17.63;;;;;;;;;;6314135;22;20397;-84
2022/03/19 11:55:29;;;;;;;22.85;17.80;;;;;;;;;;6286480;22;20437;-84
2022/03/19 11:57:58;;;;;;;22.77;17.55;;;;;;;;;;6313161;22;20039;-84
2022/03/19 12:00:26;;;;;;;25.50;18.20;;;;;;;;;;6286965;22;19995;-85
2022/03/19 12:03:09;;;;;;;22.60;17.65;;;;;;;;;;6287645;22;20003;-84
2022/03/19 12:05:39;;;;;;;24.52;17.23;;;;;;;;;;6314418;22;20007;-84
2022/03/19 12:08:17;;;;;;;23.02;17.20;;;;;;;;;;6314437;22;20003;-84
2022/03/19 12:11:09;;;;;;;20.67;16.45;;;;;;;;;;6314532;22;20157;-83
2022/03/19 12:13:37;;;;;;;21.20;17.02;;;;;;;;;;6306380;22;19999;-84
2022/03/19 12:16:04;;;;;;;22.20;16.52;;;;;;;;;;6312139;22;20010;-84
2022/03/19 12:18:33;;;;;;;22.42;17.30;;;;;;;;;;6285501;22;20443;-85
2022/03/19 12:21:03;;;;;;;24.48;16.77;;;;;;;;;;6314476;22;19999;-84
2022/03/19 12:23:47;;;;;;;23.27;18.63;;;;;;;;;;6285944;22;20035;-84
2022/03/19 12:26:13;;;;;;;23.63;18.35;;;;;;;;;;6313108;22;20432;-84
2022/03/19 12:28:40;;;;;;;21.90;16.38;;;;;;;;;;6315353;22;20093;-84
2022/03/19 12:31:15;;;;;;;23.55;17.08;;;;;;;;;;6315646;22;20006;-84
2022/03/19 12:33:43;;;;;;;25.10;17.98;;;;;;;;;;6313787;22;19999;-83
2022/03/19 12:36:16;;;;;;;20.90;16.45;;;;;;;;;;6314022;22;20094;-84
2022/03/19 12:38:43;;;;;;;24.48;18.40;;;;;;;;;;6314944;22;19995;-84
2022/03/19 12:41:26;;;;;;;28.48;21.73;;;;;;;;;;6285523;22;20004;-85
2022/03/19 12:43:53;;;;;;;53.95;36.85;;;;;;;;;;6286385;22;20478;-83
2022/03/19 12:46:27;;;;;;;22.55;17.58;;;;;;;;;;6286484;22;20086;-82
2022/03/19 12:49:07;;;;;;;21.50;15.82;;;;;;;;;;6313335;22;20025;-83
2022/03/19 12:51:34;;;;;;;19.10;15.68;;;;;;;;;;6314659;22;20495;-85
2022/03/19 12:54:00;;;;;;;19.60;14.80;;;;;;;;;;6285110;22;20393;-84
2022/03/19 12:56:27;;;;;;;20.75;14.75;;;;;;;;;;6314183;22;20342;-85
2022/03/19 12:58:55;;;;;;;19.70;15.57;;;;;;;;;;6285651;22;20003;-84
2022/03/19 13:01:28;;;;;;;19.92;15.38;;;;;;;;;;6285770;22;19999;-85
2022/03/19 13:03:55;;;;;;;19.55;14.93;;;;;;;;;;6314833;22;20000;-85
2022/03/19 13:06:28;;;;;;;18.83;13.85;;;;;;;;;;6314281;22;20058;-85
2022/03/19 13:08:55;;;;;;;17.77;13.23;;;;;;;;;;6286599;22;20015;-84
2022/03/19 13:11:21;;;;;;;17.65;13.57;;;;;;;;;;6313386;22;20078;-84
2022/03/19 13:13:47;;;;;;;20.33;14.15;;;;;;;;;;6285869;22;20010;-84
2022/03/19 13:16:25;;;;;;;19.27;14.32;;;;;;;;;;6312919;22;19999;-84
2022/03/19 13:18:57;;;;;;;19.40;14.52;;;;;;;;;;6314041;22;19999;-85
2022/03/19 13:21:23;;;;;;;18.30;14.93;;;;;;;;;;6286919;22;20007;-85
2022/03/19 13:23:49;;;;;;;22.67;16.60;;;;;;;;;;6312703;22;20006;-84
2022/03/19 13:26:17;;;;;;;26.67;15.70;;;;;;;;;;6313177;22;20019;-85
2022/03/19 13:29:00;;;;;;;20.77;15.48;;;;;;;;;;6312048;22;20003;-84
2022/03/19 13:31:26;;;;;;;21.67;16.23;;;;;;;;;;6284704;22;20009;-84
2022/03/19 13:33:58;;;;;;;22.67;16.50;;;;;;;;;;6312707;22;20007;-84
2022/03/19 13:36:26;;;;;;;21.27;15.02;;;;;;;;;;6312431;22;20014;-84
2022/03/19 13:38:56;;;;;;;22.77;17.00;;;;;;;;;;6284979;22;20447;-84
2022/03/19 13:41:23;;;;;;;22.15;17.10;;;;;;;;;;6312301;22;19995;-83
2022/03/19 13:43:49;;;;;;;22.33;16.92;;;;;;;;;;6312439;22;20026;-84
2022/03/19 13:46:20;;;;;;;24.02;17.35;;;;;;;;;;6313234;22;20000;-85
2022/03/19 13:48:48;;;;;;;21.80;16.17;;;;;;;;;;6311823;22;19999;-84
2022/03/19 13:51:16;;;;;;;21.17;15.35;;;;;;;;;;6311886;22;20004;-82
2022/03/19 13:53:43;;;;;;;22.98;15.90;;;;;;;;;;6285578;22;20095;-84
2022/03/19 13:56:10;;;;;;;20.10;15.88;;;;;;;;;;6312075;22;20003;-85
2022/03/19 13:58:37;;;;;;;20.77;16.25;;;;;;;;;;6280357;22;20350;-84
2022/03/19 14:01:16;;;;;;;20.08;14.48;;;;;;;;;;6281252;22;20007;-83
2022/03/19 14:03:42;;;;;;;22.42;16.90;;;;;;;;;;6282697;22;20051;-85
2022/03/19 14:06:11;;;;;;;22.38;16.08;;;;;;;;;;6285526;22;20007;-84
2022/03/19 14:08:39;;;;;;;20.02;15.50;;;;;;;;;;6285381;22;20000;-84
2022/03/19 14:11:12;;;;;;;21.45;16.05;;;;;;;;;;6282772;22;20011;-83
2022/03/19 14:13:40;;;;;;;23.52;16.40;;;;;;;;;;6282909;22;20004;-83
2022/03/19 14:16:07;;;;;;;25.58;18.95;;;;;;;;;;6295515;22;20014;-83
2022/03/19 14:18:34;;;;;;;23.80;17.70;;;;;;;;;;6296452;22;20066;-82
2022/03/19 14:21:03;;;;;;;26.20;18.65;;;;;;;;;;6296957;22;20002;-81
2022/03/19 14:23:31;;;;;;;25.80;19.50;;;;;;;;;;6297655;22;20010;-83
2022/03/19 14:25:57;;;;;;;27.73;19.45;;;;;;;;;;6290849;22;20137;-84
2022/03/19 14:28:23;;;;;;;27.23;19.35;;;;;;;;;;6280851;22;20336;-84
2022/03/19 14:30:50;;;;;;;28.73;21.05;;;;;;;;;;6280511;22;20015;-83
2022/03/19 14:33:16;;;;;;;25.98;19.55;;;;;;;;;;6281491;22;20075;-84
2022/03/19 14:35:48;;;;;;;25.70;19.90;;;;;;;;;;6282368;22;20328;-84